Longreach, Queensland

5:05 AM AEST on September 29, 2016 (GMT +1000)
Queensland | | Change Station

Elev 617 ft 23.45 °S, 144.25 °E | Updated 6 seconds ago

Rain
Rain
64.9 °F
Feels Like 64.9 °F
N
0.0
Wind Variable Wind from NNE
Gusts 8.7 mph

Today
High -- | Low -- °F
--% Chance of Precip.
Yesterday
High -- | Low -- °F
Precip. -- in
Pressure 29.77 in
Visibility 6.2 miles
Clouds Overcast 7600 ft
Dew Point 61 °F
Humidity 86%
Rainfall 0.13 in
Snow Depth Not available.
6:05 AM 6:21 PM
Waning Crescent, 5% visible
METAR YLRE 281900Z AUTO 36008KT 9999 // OVC076 18/17 Q1008
Pressure 29.77 in
Visibility 6.2 miles
Clouds Overcast 7600 ft
Dew Point 61 °F
Humidity 86%
Rainfall 0.13 in
Snow Depth Not available.
6:05 AM 6:21 PM
Waning Crescent, 5% visible
METAR YLRE 281900Z AUTO 36008KT 9999 // OVC076 18/17 Q1008

10-Day Weather Forecast

Almanac

Astronomy

Sep. 29, 2016 Rise Set
Actual Time
Civil Twilight
Nautical Twilight
Astronomical Twilight
Moon
Length of Visible Light
Length of Day
Tomorrow will be .
, % of the Moon is Illuminated

Today's Extremes

Country Highs Country Lows

Community

WunderPhotos

Upload Photos

1,942,303 photos uploaded!

WunderBlog® & News

Nearby

Air Quality

  Air Quality AQ Index Pollutant
Not available.

Snow Depth

Station Depth Elevation

Earthquake Activity

City Distance Mag. Time & Date
Minimum magnitude displayed is 2.5.

Coastal Water Temperatures

Place Temperature

Stations

Nearby Weather Stations

Station Location Temp. Windchill Dew Point Humidity Wind Precip. Elev Updated Type